»·PEaware :: WAT390 KASE-KBOI

WAT390 :: KASE-KBOI

FLIGHT INFORMATION

Flight Status: Arrived
Operator:
Walker Air Transport
More flights by this operator :: More flights under this callsign
Pilot: Ewen S. (18928)
Aircraft: AIRBUS A319
(A319)
More flights by this aircraft type
Origin: KASE Aspen-Pitkin Co/Sardy
United States
Destination: KBOI Boise Air Terminal/Gowen
United States
More flights between these airports :: More routes between these airports
Route: +LINDZ9 EKR J173 TCH V484 TWF MEVLE SPUUD3
File this flight plan on PilotEdge
Remarks:
Altitude:
(Current/Filed)
36,000ft
Speed:
(Current/Filed)
430kts
Departed: 18-Nov-20 01:22 PM
Arrived: 18-Nov-20 02:58 PM
Distance/Time
Traveled:
495nm/1:36
Distance/Time
To Go:
Arrived

Flight Plot

Page will automatically refresh every two minutes.

Flight plan parsing failed; only flown route is shown


Map Options




Map Legend


Flown Route
Filed Route
Departure Airport
Arrival Airport
Navaid (VOR, NDB)
Fix

Horizontal Profiles

Position Reports

Time Latitude Longitude Heading Altitude Ground
Speed
18-Nov-20 12:52 39.219814 -106.865332 161 7782ft 0kts
18-Nov-20 12:53 39.219814 -106.865332 161 7782ft 0kts
18-Nov-20 12:54 39.219814 -106.865332 161 7782ft 0kts
18-Nov-20 12:55 39.219814 -106.865332 161 7782ft 0kts
18-Nov-20 12:56 39.219814 -106.865332 161 7782ft 0kts
18-Nov-20 12:57 39.219814 -106.865332 161 7782ft 0kts
18-Nov-20 12:58 39.219814 -106.865332 161 7782ft 0kts
18-Nov-20 12:59 39.219814 -106.865332 161 7782ft 0kts
18-Nov-20 13:00 39.219814 -106.865332 161 7782ft 0kts
18-Nov-20 13:01 39.219814 -106.865332 161 7782ft 0kts
18-Nov-20 13:02 39.219814 -106.865332 161 7782ft 0kts
18-Nov-20 13:03 39.219814 -106.865332 161 7782ft 0kts
18-Nov-20 13:04 39.219814 -106.865332 161 7782ft 0kts
18-Nov-20 13:05 39.219814 -106.865332 161 7782ft 0kts
18-Nov-20 13:06 39.219814 -106.865332 161 7782ft 0kts
18-Nov-20 13:07 39.219814 -106.865332 161 7782ft 0kts
18-Nov-20 13:08 39.219814 -106.865332 161 7782ft 0kts
18-Nov-20 13:09 39.219814 -106.865332 161 7782ft 0kts
18-Nov-20 13:10 39.220239 -106.865520 160 7782ft 2kts
18-Nov-20 13:11 39.220598 -106.865258 251 7782ft 0kts
18-Nov-20 13:12 39.220598 -106.865258 251 7782ft 0kts
18-Nov-20 13:13 39.220598 -106.865258 251 7782ft 0kts
18-Nov-20 13:14 39.220581 -106.865325 251 7782ft 0kts
18-Nov-20 13:15 39.220581 -106.865327 251 7782ft 0kts
18-Nov-20 13:16 39.218868 -106.865633 160 7782ft 12kts
18-Nov-20 13:17 39.214571 -106.863582 159 7782ft 19kts
18-Nov-20 13:18 39.212025 -106.862622 234 7782ft 4kts
18-Nov-20 13:19 39.212021 -106.862628 234 7782ft 0kts
18-Nov-20 13:20 39.212121 -106.863572 329 7782ft 8kts
18-Nov-20 13:21 39.236888 -106.875164 338 8246ft 181kts
18-Nov-20 13:22 39.269330 -106.908553 281 10532ft 167kts
18-Nov-20 13:23 39.287293 -106.975388 281 11773ft 227kts
18-Nov-20 13:24 39.319627 -107.061403 306 13290ft 308kts
18-Nov-20 13:25 39.377628 -107.146092 288 16199ft 306kts
18-Nov-20 13:26 39.370424 -107.253907 254 18254ft 319kts
18-Nov-20 13:27 39.347946 -107.369020 254 20626ft 333kts
18-Nov-20 13:28 39.324618 -107.487836 253 22738ft 345kts
18-Nov-20 13:29 39.327955 -107.611608 296 24981ft 369kts
18-Nov-20 13:30 39.420424 -107.677232 334 27315ft 398kts
18-Nov-20 13:31 39.529328 -107.719872 333 28901ft 406kts
18-Nov-20 13:32 39.639649 -107.761656 333 30368ft 412kts
18-Nov-20 13:33 39.751251 -107.804017 333 31613ft 420kts
18-Nov-20 13:34 39.864274 -107.847077 333 32773ft 425kts
18-Nov-20 13:35 39.999643 -107.905245 320 34015ft 414kts
18-Nov-20 13:36 40.077711 -108.006354 291 34838ft 385kts
18-Nov-20 13:37 40.112815 -108.138907 279 35666ft 378kts
18-Nov-20 13:38 40.141247 -108.272623 279 36053ft 377kts
18-Nov-20 13:39 40.169115 -108.405887 279 36059ft 376kts
18-Nov-20 13:40 40.196541 -108.538081 278 36078ft 376kts
18-Nov-20 13:41 40.223938 -108.671081 278 36069ft 375kts
18-Nov-20 13:42 40.251307 -108.804911 277 36051ft 375kts
18-Nov-20 13:43 40.278340 -108.937879 277 36046ft 375kts
18-Nov-20 13:44 40.305039 -109.069973 277 36046ft 374kts
18-Nov-20 13:45 40.331685 -109.202653 276 36046ft 374kts
18-Nov-20 13:46 40.358171 -109.335410 276 36046ft 374kts
18-Nov-20 13:47 40.384448 -109.467948 276 36046ft 374kts
18-Nov-20 13:48 40.410742 -109.601437 276 36046ft 375kts
18-Nov-20 13:49 40.437110 -109.736373 275 36046ft 373kts
18-Nov-20 13:50 40.463114 -109.870345 275 36046ft 373kts
18-Nov-20 13:51 40.488930 -110.004042 275 36046ft 373kts
18-Nov-20 13:52 40.514558 -110.137646 275 36046ft 371kts
18-Nov-20 13:53 40.539642 -110.269498 275 36044ft 371kts
18-Nov-20 13:54 40.564724 -110.402156 275 36034ft 370kts
18-Nov-20 13:55 40.589514 -110.534178 275 36025ft 370kts
18-Nov-20 13:56 40.614260 -110.666797 274 36023ft 368kts
18-Nov-20 13:57 40.638753 -110.799082 274 36012ft 367kts
18-Nov-20 13:58 40.662946 -110.930606 274 36021ft 365kts
18-Nov-20 13:59 40.687037 -111.062411 274 35997ft 366kts
18-Nov-20 14:00 40.710928 -111.194113 274 35964ft 365kts
18-Nov-20 14:01 40.734600 -111.325480 274 35955ft 365kts
18-Nov-20 14:02 40.758107 -111.456827 274 35957ft 365kts
18-Nov-20 14:03 40.781360 -111.587748 274 35957ft 364kts
18-Nov-20 14:04 40.804541 -111.719136 273 35962ft 363kts
18-Nov-20 14:05 40.827502 -111.850357 273 35963ft 363kts
18-Nov-20 14:06 40.863322 -111.978931 286 35957ft 379kts
18-Nov-20 14:07 40.926951 -112.095394 298 35944ft 394kts
18-Nov-20 14:08 41.000496 -112.204467 298 35936ft 394kts
18-Nov-20 14:09 41.073909 -112.313746 298 35935ft 393kts
18-Nov-20 14:10 41.146574 -112.421981 298 35935ft 393kts
18-Nov-20 14:11 41.219896 -112.531822 298 35935ft 394kts
18-Nov-20 14:12 41.293931 -112.643204 298 35937ft 394kts
18-Nov-20 14:13 41.367414 -112.754657 297 35949ft 393kts
18-Nov-20 14:14 41.440171 -112.865095 297 35957ft 394kts
18-Nov-20 14:15 41.513020 -112.975979 297 35963ft 394kts
18-Nov-20 14:16 41.586819 -113.088740 297 35961ft 394kts
18-Nov-20 14:17 41.660269 -113.201495 297 35960ft 396kts
18-Nov-20 14:18 41.733411 -113.314164 297 35961ft 397kts
18-Nov-20 14:20 41.807242 -113.428342 297 35961ft 400kts
18-Nov-20 14:21 41.881486 -113.543601 297 35963ft 400kts
18-Nov-20 14:22 41.956733 -113.660935 297 35966ft 401kts
18-Nov-20 14:23 42.031175 -113.777709 297 35961ft 402kts
18-Nov-20 14:24 42.105282 -113.894066 297 35959ft 402kts
18-Nov-20 14:25 42.179704 -114.010843 297 35963ft 402kts
18-Nov-20 14:26 42.252697 -114.126467 297 35960ft 402kts
18-Nov-20 14:27 42.326222 -114.243352 297 35959ft 403kts
18-Nov-20 14:28 42.399415 -114.360093 297 35950ft 403kts
18-Nov-20 14:29 42.482866 -114.469302 314 35300ft 426kts
18-Nov-20 14:30 42.598045 -114.530947 335 33345ft 459kts
18-Nov-20 14:31 42.723248 -114.572402 335 31369ft 450kts
18-Nov-20 14:32 42.846170 -114.614671 334 29737ft 435kts
18-Nov-20 14:33 42.942551 -114.687529 285 28027ft 353kts
18-Nov-20 14:34 42.983382 -114.809269 283 26358ft 343kts
18-Nov-20 14:35 43.023030 -114.926887 285 24715ft 337kts
18-Nov-20 14:36 43.062554 -115.044009 285 23087ft 331kts
18-Nov-20 14:37 43.101185 -115.158860 286 21487ft 324kts
18-Nov-20 14:38 43.139308 -115.271609 286 19903ft 315kts
18-Nov-20 14:38 43.169575 -115.362193 286 18713ft 304kts
18-Nov-20 14:39 43.203401 -115.464081 287 16150ft 287kts
18-Nov-20 14:41 43.241307 -115.578867 288 12848ft 280kts
18-Nov-20 14:41 43.268019 -115.660008 289 10553ft 282kts
18-Nov-20 14:43 43.310155 -115.774755 293 9653ft 288kts
18-Nov-20 14:43 43.340979 -115.857349 294 9236ft 289kts
18-Nov-20 14:44 43.377923 -115.956548 294 8737ft 290kts
18-Nov-20 14:45 43.414715 -116.055787 294 8236ft 287kts
18-Nov-20 14:46 43.448932 -116.148475 294 7632ft 253kts
18-Nov-20 14:47 43.479036 -116.232863 293 7001ft 238kts
18-Nov-20 14:48 43.509747 -116.314831 305 6997ft 240kts
18-Nov-20 14:49 43.541879 -116.393428 295 6995ft 227kts
18-Nov-20 14:50 43.570995 -116.470305 295 6109ft 224kts
18-Nov-20 14:51 43.623300 -116.490569 23 5999ft 227kts
18-Nov-20 14:52 43.664121 -116.437635 104 5983ft 201kts
18-Nov-20 14:53 43.621339 -116.400412 142 5325ft 187kts
18-Nov-20 14:54 43.602188 -116.338309 110 3981ft 151kts
18-Nov-20 14:55 43.587378 -116.292960 113 3611ft 124kts
18-Nov-20 14:56 43.572633 -116.250128 116 3022ft 124kts
18-Nov-20 14:57 43.562211 -116.219803 115 2851ft 39kts
18-Nov-20 14:58 43.564091 -116.217180 356 2851ft 15kts
18-Nov-20 14:59 43.566333 -116.221344 347 2851ft 7kts
18-Nov-20 15:00 43.567284 -116.220703 26 2851ft 0kts

Navigation Log

Ident Type
Flight plan parsing failed, navigation log unavailable